Time;durP1;ratioP1;P1;durP2;ratioP2;P2;SDS_P1;SDS_P2;PMS_P1;PMS_P2;Temp;Humidity;BMP_temperature;BMP_pressure;BME280_temperature;BME280_humidity;BME280_pressure;Samples;Min_cycle;Max_cycle;Signal;HPM_P1;HPM_P2
2023/04/05 00:02:04;;;;;;;;;;;;;;;8.63;nan;102485.59;5023550;28;19960;-79
2023/04/05 00:04:33;;;;;;;;;;;;;;;8.62;nan;102494.63;5027589;28;19917;-79
2023/04/05 00:06:58;;;;;;;;;;;;;;;8.61;nan;102487.59;5025170;28;20295;-80
2023/04/05 00:09:24;;;;;;;;;;;;;;;8.63;nan;102480.25;5025287;28;19924;-79
2023/04/05 00:11:49;;;;;;;;;;;;;;;8.60;nan;102485.97;5026796;28;19924;-79
2023/04/05 00:14:14;;;;;;;;;;;;;;;8.59;nan;102484.31;5007014;28;19932;-79
2023/04/05 00:16:40;;;;;;;;;;;;;;;8.59;nan;102476.28;5025592;28;20351;-80
2023/04/05 00:19:05;;;;;;;;;;;;;;;8.59;nan;102475.47;5006959;28;19917;-79
2023/04/05 00:21:32;;;;;;;;;;;;;;;8.64;nan;102478.41;5024398;28;19924;-79
2023/04/05 00:23:58;;;;;;;;;;;;;;;8.67;nan;102470.81;5027060;28;19956;-80
2023/04/05 00:26:23;;;;;;;;;;;;;;;8.70;nan;102473.09;5024855;28;19929;-80
2023/04/05 00:28:49;;;;;;;;;;;;;;;8.70;nan;102467.75;5024444;28;19925;-79
2023/04/05 00:31:15;;;;;;;;;;;;;;;8.70;nan;102457.06;5025233;28;20160;-79
2023/04/05 00:33:40;;;;;;;;;;;;;;;8.70;nan;102462.41;5023745;28;20409;-79
2023/04/05 00:36:12;;;;;;;;;;;;;;;8.71;nan;102457.91;5027997;28;19959;-79
2023/04/05 00:38:38;;;;;;;;;;;;;;;8.71;nan;102464.06;5024792;28;19917;-80
2023/04/05 00:41:03;;;;;;;;;;;;;;;8.71;nan;102464.06;5024882;28;20409;-79
2023/04/05 00:43:29;;;;;;;;;;;;;;;8.74;nan;102460.19;5030434;28;19932;-79
2023/04/05 00:45:55;;;;;;;;;;;;;;;8.74;nan;102460.19;5030334;28;19992;-79
2023/04/05 00:48:21;;;;;;;;;;;;;;;8.75;nan;102454.63;5028746;28;20362;-80
2023/04/05 00:50:48;;;;;;;;;;;;;;;8.77;nan;102455.25;5028262;28;19936;-80
2023/04/05 00:53:14;;;;;;;;;;;;;;;8.78;nan;102454.25;5028974;28;19917;-80
2023/04/05 00:55:40;;;;;;;;;;;;;;;8.77;nan;102446.41;5028051;28;20272;-79
2023/04/05 00:58:08;;;;;;;;;;;;;;;8.73;nan;102446.00;5031700;28;20393;-80
2023/04/05 01:00:37;;;;;;;;;;;;;;;8.71;nan;102445.38;5030126;28;19956;-79
2023/04/05 01:03:03;;;;;;;;;;;;;;;8.74;nan;102446.81;5031791;28;19917;-79
2023/04/05 01:05:46;;;;;;;;;;;;;;;8.75;nan;102448.47;5027811;28;19917;-79
2023/04/05 01:08:24;;;;;;;;;;;;;;;8.77;nan;102446.41;5029758;28;19939;-79
2023/04/05 01:10:53;;;;;;;;;;;;;;;8.81;nan;102449.56;5028052;28;19952;-79
2023/04/05 01:13:19;;;;;;;;;;;;;;;8.81;nan;102444.22;5030347;28;20032;-79
2023/04/05 01:15:44;;;;;;;;;;;;;;;8.78;nan;102440.88;5029098;28;20373;-79
2023/04/05 01:18:10;;;;;;;;;;;;;;;8.79;nan;102437.19;5026598;28;19916;-79
2023/04/05 01:20:51;;;;;;;;;;;;;;;8.84;nan;102430.44;5030189;28;19917;-80
2023/04/05 01:23:29;;;;;;;;;;;;;;;8.85;nan;102432.94;5020687;28;20380;-80
2023/04/05 01:26:13;;;;;;;;;;;;;;;8.85;nan;102427.59;5026279;28;20315;-79
2023/04/05 01:28:57;;;;;;;;;;;;;;;8.83;nan;102429.63;5025792;28;19917;-79
2023/04/05 01:31:25;;;;;;;;;;;;;;;8.83;nan;102434.16;5030693;28;19921;-79
2023/04/05 01:33:51;;;;;;;;;;;;;;;8.85;nan;102427.59;5029014;28;20149;-80
2023/04/05 01:36:18;;;;;;;;;;;;;;;8.84;nan;102425.94;5011354;28;19987;-80
2023/04/05 01:38:45;;;;;;;;;;;;;;;8.84;nan;102425.94;5028947;28;20367;-79
2023/04/05 01:41:11;;;;;;;;;;;;;;;8.89;nan;102428.84;5033389;28;19991;-79
2023/04/05 01:43:36;;;;;;;;;;;;;;;8.93;nan;102418.56;5030249;28;19952;-80
2023/04/05 01:46:02;;;;;;;;;;;;;;;8.94;nan;102421.03;5031448;28;20294;-79
2023/04/05 01:48:27;;;;;;;;;;;;;;;8.96;nan;102421.66;5027621;28;19917;-80
2023/04/05 01:50:52;;;;;;;;;;;;;;;8.95;nan;102412.00;5030110;28;20333;-79
2023/04/05 01:53:18;;;;;;;;;;;;;;;8.96;nan;102420.84;5030107;28;19921;-80
2023/04/05 01:55:43;;;;;;;;;;;;;;;8.98;nan;102426.84;5027472;28;19917;-80
2023/04/05 01:58:09;;;;;;;;;;;;;;;8.93;nan;102424.75;5027950;28;19924;-80
2023/04/05 02:00:34;;;;;;;;;;;;;;;8.85;nan;102424.91;5024397;28;19921;-79
2023/04/05 02:02:59;;;;;;;;;;;;;;;8.85;nan;102422.25;5029543;28;20460;-80
2023/04/05 02:05:24;;;;;;;;;;;;;;;8.83;nan;102421.59;5027201;28;19917;-80
2023/04/05 02:07:50;;;;;;;;;;;;;;;8.84;nan;102420.59;5029432;28;19925;-79
2023/04/05 02:10:17;;;;;;;;;;;;;;;8.89;nan;102415.47;5027126;28;20318;-80
2023/04/05 02:12:42;;;;;;;;;;;;;;;8.92;nan;102414.25;5027730;28;20011;-79
2023/04/05 02:15:08;;;;;;;;;;;;;;;8.97;nan;102414.47;5010355;28;20008;-79
2023/04/05 02:17:37;;;;;;;;;;;;;;;9.00;nan;102419.47;5029078;28;19917;-80
2023/04/05 02:20:05;;;;;;;;;;;;;;;9.04;nan;102412.69;5028347;28;19925;-79
2023/04/05 02:22:31;;;;;;;;;;;;;;;9.02;nan;102407.53;5027673;28;19945;-79
2023/04/05 02:24:56;;;;;;;;;;;;;;;8.99;nan;102401.75;5027005;28;20572;-79
2023/04/05 02:27:21;;;;;;;;;;;;;;;8.97;nan;102404.59;5028070;28;19925;-79
2023/04/05 02:29:46;;;;;;;;;;;;;;;9.01;nan;102397.03;5025739;28;19925;-79
2023/04/05 02:32:12;;;;;;;;;;;;;;;9.04;nan;102408.16;5029769;28;19917;-79
2023/04/05 02:34:40;;;;;;;;;;;;;;;9.06;nan;102397.25;5027177;28;19917;-80
2023/04/05 02:37:05;;;;;;;;;;;;;;;9.07;nan;102407.75;5030770;28;19994;-80
2023/04/05 02:39:30;;;;;;;;;;;;;;;9.07;nan;102407.75;5028180;28;20383;-80
2023/04/05 02:41:56;;;;;;;;;;;;;;;9.09;nan;102407.56;5030503;28;19929;-80
2023/04/05 02:44:21;;;;;;;;;;;;;;;9.12;nan;102409.84;5030059;28;19917;-80
2023/04/05 02:46:47;;;;;;;;;;;;;;;9.14;nan;102406.97;5027419;28;20509;-79
2023/04/05 02:49:12;;;;;;;;;;;;;;;9.15;nan;102406.75;5031491;28;19916;-79
2023/04/05 02:51:37;;;;;;;;;;;;;;;9.16;nan;102413.78;5025471;28;19921;-80
2023/04/05 02:54:03;;;;;;;;;;;;;;;9.14;nan;102405.13;5029827;28;20594;-80
2023/04/05 02:56:28;;;;;;;;;;;;;;;9.14;nan;102405.13;5030128;28;19986;-80
2023/04/05 02:58:54;;;;;;;;;;;;;;;9.07;nan;102407.75;5027054;28;19917;-80
2023/04/05 03:01:19;;;;;;;;;;;;;;;9.06;nan;102402.63;5027533;28;20375;-80
2023/04/05 03:03:44;;;;;;;;;;;;;;;9.09;nan;102402.22;5025662;28;19925;-80
2023/04/05 03:06:10;;;;;;;;;;;;;;;9.14;nan;102390.91;5030656;28;19928;-80
2023/04/05 03:08:37;;;;;;;;;;;;;;;9.16;nan;102395.06;5027023;28;19948;-80
2023/04/05 03:11:04;;;;;;;;;;;;;;;9.15;nan;102397.91;5027195;28;19963;-80
2023/04/05 03:13:29;;;;;;;;;;;;;;;9.14;nan;102405.13;5024658;28;19924;-80
2023/04/05 03:15:54;;;;;;;;;;;;;;;9.17;nan;102403.91;5027713;28;19943;-80
2023/04/05 03:18:20;;;;;;;;;;;;;;;9.20;nan;102403.50;5029612;28;19917;-80
2023/04/05 03:20:49;;;;;;;;;;;;;;;9.21;nan;102394.47;5026508;28;19974;-80
2023/04/05 03:23:15;;;;;;;;;;;;;;;9.23;nan;102387.88;5026413;28;19924;-80
2023/04/05 03:25:40;;;;;;;;;;;;;;;9.24;nan;102389.53;5027680;28;19974;-80
2023/04/05 03:28:08;;;;;;;;;;;;;;;9.24;nan;102389.53;5028761;28;19917;-79
2023/04/05 03:30:36;;;;;;;;;;;;;;;9.24;nan;102399.41;5016670;28;19928;-80
2023/04/05 03:33:02;;;;;;;;;;;;;;;9.25;nan;102390.38;5012555;28;19956;-80
2023/04/05 03:35:28;;;;;;;;;;;;;;;9.24;nan;102394.88;5018634;28;20445;-80
2023/04/05 03:37:54;;;;;;;;;;;;;;;9.24;nan;102402.09;5018778;28;19925;-80
2023/04/05 03:40:19;;;;;;;;;;;;;;;9.22;nan;102401.47;5016455;28;19986;-80
2023/04/05 03:42:45;;;;;;;;;;;;;;;9.20;nan;102403.50;5022637;28;19924;-80
2023/04/05 03:45:10;;;;;;;;;;;;;;;9.20;nan;102399.00;5021894;28;20274;-80
2023/04/05 03:47:36;;;;;;;;;;;;;;;9.21;nan;102397.97;5026522;28;19921;-80
2023/04/05 03:50:02;;;;;;;;;;;;;;;9.22;nan;102393.44;5028546;28;20453;-80
2023/04/05 03:52:27;;;;;;;;;;;;;;;9.23;nan;102379.88;5027228;28;20104;-80
2023/04/05 03:54:53;;;;;;;;;;;;;;;9.27;nan;102383.78;5027293;28;19970;-80
2023/04/05 03:57:18;;;;;;;;;;;;;;;9.30;nan;102385.22;5028054;28;19928;-80
2023/04/05 03:59:43;;;;;;;;;;;;;;;9.30;nan;102388.72;5024966;28;19929;-79
2023/04/05 04:02:09;;;;;;;;;;;;;;;9.27;nan;102389.13;5028634;28;20418;-80
2023/04/05 04:04:34;;;;;;;;;;;;;;;9.27;nan;102383.78;5026123;28;20004;-80
2023/04/05 04:06:59;;;;;;;;;;;;;;;9.31;nan;102378.84;5025686;28;19929;-80
2023/04/05 04:09:28;;;;;;;;;;;;;;;9.33;nan;102384.81;5025577;28;19920;-80
2023/04/05 04:11:53;;;;;;;;;;;;;;;9.30;nan;102380.72;5025878;28;20391;-80
2023/04/05 04:14:19;;;;;;;;;;;;;;;9.28;nan;102385.44;5026160;28;19959;-80
2023/04/05 04:16:44;;;;;;;;;;;;;;;9.27;nan;102383.78;5027848;28;19921;-79
2023/04/05 04:19:10;;;;;;;;;;;;;;;9.26;nan;102390.16;5023798;28;19952;-80
2023/04/05 04:21:38;;;;;;;;;;;;;;;9.23;nan;102397.75;5026648;28;20008;-80
2023/04/05 04:24:03;;;;;;;;;;;;;;;9.23;nan;102393.25;5024914;28;19999;-80
2023/04/05 04:26:29;;;;;;;;;;;;;;;9.27;nan;102394.47;5027662;28;20008;-80
2023/04/05 04:28:54;;;;;;;;;;;;;;;9.30;nan;102396.75;5027224;28;19917;-79
2023/04/05 04:31:22;;;;;;;;;;;;;;;9.31;nan;102401.09;5026565;28;19963;-80
2023/04/05 04:33:50;;;;;;;;;;;;;;;9.33;nan;102404.38;5025595;28;19933;-79
2023/04/05 04:36:17;;;;;;;;;;;;;;;9.34;nan;102400.72;5023407;28;20512;-80
2023/04/05 04:38:43;;;;;;;;;;;;;;;9.34;nan;102400.72;5023772;28;19917;-79
2023/04/05 04:41:12;;;;;;;;;;;;;;;9.35;nan;102406.88;5026972;28;20007;-80
2023/04/05 04:43:41;;;;;;;;;;;;;;;9.36;nan;102409.34;5027017;28;19921;-80
2023/04/05 04:46:10;;;;;;;;;;;;;;;9.37;nan;102405.66;5027950;28;19928;-80
2023/04/05 04:48:36;;;;;;;;;;;;;;;9.37;nan;102410.19;5008748;28;19948;-80
2023/04/05 04:51:03;;;;;;;;;;;;;;;9.38;nan;102404.63;5026156;28;19917;-80
2023/04/05 04:53:28;;;;;;;;;;;;;;;9.39;nan;102408.94;5008525;28;19974;-80
2023/04/05 04:55:55;;;;;;;;;;;;;;;9.41;nan;102399.91;5028434;28;19921;-80
2023/04/05 04:58:20;;;;;;;;;;;;;;;9.42;nan;102396.19;5026897;28;19990;-80
2023/04/05 05:00:45;;;;;;;;;;;;;;;9.41;nan;102400.72;5022677;28;19965;-79
2023/04/05 05:03:11;;;;;;;;;;;;;;;9.39;nan;102400.94;5028741;28;19917;-80
2023/04/05 05:05:43;;;;;;;;;;;;;;;9.41;nan;102398.06;5026486;28;19971;-80
2023/04/05 05:08:08;;;;;;;;;;;;;;;9.39;nan;102398.25;5025278;28;19982;-80
2023/04/05 05:10:34;;;;;;;;;;;;;;;9.37;nan;102405.66;5025660;28;20379;-80
2023/04/05 05:12:59;;;;;;;;;;;;;;;9.37;nan;102405.66;5026521;28;20415;-80
2023/04/05 05:15:26;;;;;;;;;;;;;;;9.37;nan;102404.84;5026825;28;19921;-80
2023/04/05 05:17:52;;;;;;;;;;;;;;;9.34;nan;102410.59;5024230;28;20082;-80
2023/04/05 05:20:18;;;;;;;;;;;;;;;9.29;nan;102418.34;5026621;28;19987;-80
2023/04/05 05:22:45;;;;;;;;;;;;;;;9.31;nan;102417.13;5022748;28;19921;-80
2023/04/05 05:25:11;;;;;;;;;;;;;;;9.36;nan;102420.06;5026955;28;20015;-79
2023/04/05 05:27:36;;;;;;;;;;;;;;;9.38;nan;102418.00;5027661;28;20450;-80
2023/04/05 05:30:02;;;;;;;;;;;;;;;9.36;nan;102413.88;5029236;28;19917;-79
2023/04/05 05:32:27;;;;;;;;;;;;;;;9.37;nan;102420.88;5025535;28;20542;-80
2023/04/05 05:34:53;;;;;;;;;;;;;;;9.42;nan;102418.44;5025813;28;20008;-80
2023/04/05 05:37:18;;;;;;;;;;;;;;;9.47;nan;102420.50;5028298;28;19921;-80
2023/04/05 05:39:43;;;;;;;;;;;;;;;9.49;nan;102419.25;5030373;28;19932;-80
2023/04/05 05:42:09;;;;;;;;;;;;;;;9.55;nan;102421.16;5031866;28;20130;-80
2023/04/05 05:44:35;;;;;;;;;;;;;;;9.61;nan;102422.19;5027560;28;20406;-80
2023/04/05 05:47:00;;;;;;;;;;;;;;;9.68;nan;102418.50;5030681;28;19925;-80
2023/04/05 05:49:25;;;;;;;;;;;;;;;9.75;nan;102415.03;5010521;28;19932;-79
2023/04/05 05:51:55;;;;;;;;;;;;;;;9.78;nan;102418.13;5027603;28;19920;-80
2023/04/05 05:54:20;;;;;;;;;;;;;;;9.83;nan;102415.66;5030777;28;20371;-80
2023/04/05 05:56:46;;;;;;;;;;;;;;;9.89;nan;102411.38;5027784;28;19925;-80
2023/04/05 05:59:11;;;;;;;;;;;;;;;9.94;nan;102412.41;5009326;28;19960;-80
2023/04/05 06:01:37;;;;;;;;;;;;;;;10.02;nan;102418.59;5027784;28;20331;-80
2023/04/05 06:04:05;;;;;;;;;;;;;;;10.06;nan;102412.66;5027626;28;19939;-80
2023/04/05 06:06:32;;;;;;;;;;;;;;;10.09;nan;102419.44;5030153;28;19925;-80
2023/04/05 06:08:57;;;;;;;;;;;;;;;10.10;nan;102415.72;5028878;28;20398;-80
2023/04/05 06:11:24;;;;;;;;;;;;;;;10.05;nan;102410.16;5028094;28;19967;-80
2023/04/05 06:13:51;;;;;;;;;;;;;;;10.06;nan;102414.50;5028364;28;19925;-80
2023/04/05 06:16:16;;;;;;;;;;;;;;;10.12;nan;102411.81;5030573;28;19925;-80
2023/04/05 06:18:42;;;;;;;;;;;;;;;10.20;nan;102405.44;5027525;28;19920;-80
2023/04/05 06:21:08;;;;;;;;;;;;;;;10.35;nan;102414.13;5029669;28;19920;-80
2023/04/05 06:23:33;;;;;;;;;;;;;;;10.55;nan;102404.22;5027290;28;19921;-80
2023/04/05 06:25:58;;;;;;;;;;;;;;;10.69;nan;102409.56;5026653;28;20306;-80
2023/04/05 06:28:23;;;;;;;;;;;;;;;10.88;nan;102411.41;5026913;28;20448;-80
2023/04/05 06:30:51;;;;;;;;;;;;;;;11.03;nan;102398.56;5029013;28;20330;-80
2023/04/05 06:33:16;;;;;;;;;;;;;;;11.23;nan;102395.00;5025957;28;19931;-80
2023/04/05 06:35:41;;;;;;;;;;;;;;;11.30;nan;102406.53;5027313;28;19917;-80
2023/04/05 06:38:07;;;;;;;;;;;;;;;11.43;nan;102398.44;5030026;28;20397;-80
2023/04/05 06:40:32;;;;;;;;;;;;;;;11.57;nan;102397.34;5026851;28;19917;-80
2023/04/05 06:42:57;;;;;;;;;;;;;;;11.71;nan;102404.28;5027125;28;19943;-80
2023/04/05 06:45:23;;;;;;;;;;;;;;;11.87;nan;102404.84;5026746;28;19995;-81
2023/04/05 06:47:48;;;;;;;;;;;;;;;11.99;nan;102397.72;5024475;28;19921;-81
2023/04/05 06:50:14;;;;;;;;;;;;;;;12.09;nan;102403.47;5027458;28;19917;-81
2023/04/05 06:52:39;;;;;;;;;;;;;;;12.20;nan;102402.72;5007062;28;19967;-81
2023/04/05 06:55:05;;;;;;;;;;;;;;;12.31;nan;102398.53;5012069;28;19921;-81
2023/04/05 06:57:30;;;;;;;;;;;;;;;12.37;nan;102401.16;5026133;28;19916;-81
2023/04/05 06:59:56;;;;;;;;;;;;;;;12.47;nan;102397.97;5029552;28;19917;-81
2023/04/05 07:02:21;;;;;;;;;;;;;;;12.57;nan;102392.13;5024742;28;20008;-81
2023/04/05 07:04:47;;;;;;;;;;;;;;;12.63;nan;102386.66;5026752;28;19936;-81
2023/04/05 07:07:12;;;;;;;;;;;;;;;12.70;nan;102383.91;5028505;28;19928;-81
2023/04/05 07:09:38;;;;;;;;;;;;;;;12.80;nan;102391.47;5026542;28;19931;-81
2023/04/05 07:12:04;;;;;;;;;;;;;;;12.85;nan;102389.75;5024430;28;20362;-82
2023/04/05 07:14:30;;;;;;;;;;;;;;;12.90;nan;102387.19;5026850;28;20491;-81
2023/04/05 07:16:56;;;;;;;;;;;;;;;12.93;nan;102392.16;5026265;28;19956;-81
2023/04/05 07:19:21;;;;;;;;;;;;;;;13.01;nan;102388.34;5026323;28;19964;-81
2023/04/05 07:21:47;;;;;;;;;;;;;;;13.08;nan;102388.25;5026232;28;21172;-81
2023/04/05 07:24:12;;;;;;;;;;;;;;;13.25;nan;102383.94;5027533;28;20374;-81
2023/04/05 07:26:37;;;;;;;;;;;;;;;13.32;nan;102379.31;5026335;28;20403;-81
2023/04/05 07:29:03;;;;;;;;;;;;;;;13.32;nan;102386.56;5027299;28;19917;-81
2023/04/05 07:31:30;;;;;;;;;;;;;;;13.35;nan;102378.84;5021614;28;20232;-81
2023/04/05 07:33:57;;;;;;;;;;;;;;;13.43;nan;102383.91;5024731;28;19924;-81
2023/04/05 07:36:22;;;;;;;;;;;;;;;13.54;nan;102380.47;5021873;28;20197;-81
2023/04/05 07:38:47;;;;;;;;;;;;;;;13.64;nan;102389.84;5021331;28;20334;-81
2023/04/05 07:41:15;;;;;;;;;;;;;;;13.71;nan;102382.50;5027253;28;19917;-81
2023/04/05 07:43:41;;;;;;;;;;;;;;;13.81;nan;102380.88;5025483;28;19917;-81
2023/04/05 07:46:06;;;;;;;;;;;;;;;13.91;nan;102385.75;5025935;28;20299;-81
2023/04/05 07:48:32;;;;;;;;;;;;;;;13.99;nan;102395.34;5021093;28;20445;-81
2023/04/05 07:51:07;;;;;;;;;;;;;;;14.05;nan;102395.28;5022549;28;19960;-81
2023/04/05 07:53:32;;;;;;;;;;;;;;;14.15;nan;102389.28;5023646;28;19918;-81
2023/04/05 07:55:58;;;;;;;;;;;;;;;14.26;nan;102395.78;5021529;28;21353;-81
2023/04/05 07:58:29;;;;;;;;;;;;;;;14.36;nan;102396.00;5025107;28;20402;-81
2023/04/05 08:00:57;;;;;;;;;;;;;;;14.43;nan;102394.88;5023003;28;19961;-81
2023/04/05 08:03:23;;;;;;;;;;;;;;;14.54;nan;102395.94;5024724;28;19917;-81
2023/04/05 08:05:48;;;;;;;;;;;;;;;14.69;nan;102403.56;5024278;28;20168;-81
2023/04/05 08:08:13;;;;;;;;;;;;;;;14.81;nan;102399.81;5020797;28;19976;-81
2023/04/05 08:10:39;;;;;;;;;;;;;;;14.81;nan;102397.09;5025183;28;19968;-81
2023/04/05 08:13:05;;;;;;;;;;;;;;;14.79;nan;102396.53;5026016;28;20016;-81
2023/04/05 08:15:34;;;;;;;;;;;;;;;14.89;nan;102389.69;5025064;28;19929;-81
2023/04/05 08:18:18;;;;;;;;;;;;;;;15.01;nan;102387.81;5021941;28;20024;-81
2023/04/05 08:20:43;;;;;;;;;;;;;;;15.07;nan;102386.84;5025787;28;20117;-81
2023/04/05 08:23:08;;;;;;;;;;;;;;;15.07;nan;102384.16;5024871;28;19917;-81
2023/04/05 08:25:34;;;;;;;;;;;;;;;15.18;nan;102377.09;5024881;28;19917;-81
2023/04/05 08:27:59;;;;;;;;;;;;;;;15.30;nan;102380.59;5023767;28;19959;-81
2023/04/05 08:30:25;;;;;;;;;;;;;;;15.38;nan;102375.59;5024558;28;19917;-81
2023/04/05 08:32:54;;;;;;;;;;;;;;;15.48;nan;102382.28;5024857;28;19925;-81
2023/04/05 08:35:19;;;;;;;;;;;;;;;15.53;nan;102372.38;5025429;28;19921;-82
2023/04/05 08:37:46;;;;;;;;;;;;;;;15.61;nan;102379.31;5024303;28;19917;-81
2023/04/05 08:40:11;;;;;;;;;;;;;;;15.67;nan;102371.06;5024325;28;19921;-81
2023/04/05 08:42:56;;;;;;;;;;;;;;;15.59;nan;102367.91;5024930;28;19921;-82
2023/04/05 08:45:24;;;;;;;;;;;;;;;15.56;nan;102377.31;5025767;28;20332;-81
2023/04/05 08:47:51;;;;;;;;;;;;;;;15.60;nan;102378.47;5024109;28;19932;-82
2023/04/05 08:50:16;;;;;;;;;;;;;;;15.72;nan;102367.63;5025729;28;19925;-82
2023/04/05 08:52:42;;;;;;;;;;;;;;;15.86;nan;102374.38;5005673;28;19968;-82
2023/04/05 08:55:08;;;;;;;;;;;;;;;16.03;nan;102377.09;5025571;28;19932;-82
2023/04/05 08:57:36;;;;;;;;;;;;;;;16.17;nan;102385.72;5024588;28;19917;-81
2023/04/05 09:00:02;;;;;;;;;;;;;;;16.14;nan;102380.75;5025012;28;20145;-81
2023/04/05 09:02:28;;;;;;;;;;;;;;;16.06;nan;102378.47;5025099;28;20348;-82
2023/04/05 09:04:53;;;;;;;;;;;;;;;15.99;nan;102368.66;5028213;28;20386;-81
2023/04/05 09:07:19;;;;;;;;;;;;;;;16.04;nan;102369.81;5029731;28;19925;-82
2023/04/05 09:09:47;;;;;;;;;;;;;;;16.10;nan;102372.34;5030804;28;20291;-81
2023/04/05 09:12:13;;;;;;;;;;;;;;;16.09;nan;102368.00;5027878;28;19917;-81
2023/04/05 09:14:38;;;;;;;;;;;;;;;16.08;nan;102363.66;5009960;28;19940;-81
2023/04/05 09:17:05;;;;;;;;;;;;;;;16.06;nan;102362.25;5028442;28;20494;-81
2023/04/05 09:19:30;;;;;;;;;;;;;;;16.08;nan;102352.84;5009115;28;19917;-81
2023/04/05 09:21:59;;;;;;;;;;;;;;;16.17;nan;102364.06;5027754;28;19928;-81
2023/04/05 09:24:32;;;;;;;;;;;;;;;16.38;nan;102365.22;5028971;28;19917;-81
2023/04/05 09:27:08;;;;;;;;;;;;;;;16.58;nan;102362.78;5027980;28;19931;-81
2023/04/05 09:29:34;;;;;;;;;;;;;;;16.71;nan;102367.06;5025061;28;19924;-81
2023/04/05 09:32:01;;;;;;;;;;;;;;;16.76;nan;102364.44;5028276;28;19929;-81
2023/04/05 09:34:28;;;;;;;;;;;;;;;16.88;nan;102365.16;5028484;28;19927;-81
2023/04/05 09:36:53;;;;;;;;;;;;;;;17.05;nan;102355.03;5028305;28;19929;-81
2023/04/05 09:39:26;;;;;;;;;;;;;;;17.20;nan;102357.13;5027882;28;19975;-81
2023/04/05 09:42:03;;;;;;;;;;;;;;;17.27;nan;102356.94;5027385;28;19979;-81
2023/04/05 09:44:47;;;;;;;;;;;;;;;17.31;nan;102356.19;5025724;28;20015;-81
2023/04/05 09:47:17;;;;;;;;;;;;;;;17.48;nan;102358.81;5027288;28;20560;-81
2023/04/05 09:49:42;;;;;;;;;;;;;;;17.63;nan;102358.97;5009352;28;19923;-82
2023/04/05 09:52:20;;;;;;;;;;;;;;;17.69;nan;102363.38;5028289;28;19975;-82
2023/04/05 09:54:46;;;;;;;;;;;;;;;17.70;nan;102365.00;5009044;28;20438;-82
2023/04/05 09:57:12;;;;;;;;;;;;;;;17.68;nan;102353.59;5027808;28;20004;-82
2023/04/05 09:59:40;;;;;;;;;;;;;;;17.80;nan;102357.00;5027998;28;19921;-83
2023/04/05 10:02:06;;;;;;;;;;;;;;;17.85;nan;102356.22;5028415;28;19921;-82
2023/04/05 10:04:40;;;;;;;;;;;;;;;17.89;nan;102351.09;5028577;28;19939;-82
2023/04/05 10:07:07;;;;;;;;;;;;;;;17.96;nan;102354.41;5028920;28;20410;-83
2023/04/05 10:09:33;;;;;;;;;;;;;;;18.10;nan;102361.00;5030177;28;19980;-83
2023/04/05 10:12:00;;;;;;;;;;;;;;;18.29;nan;102353.28;5027401;28;20416;-83
2023/04/05 10:14:25;;;;;;;;;;;;;;;18.38;nan;102363.41;5027024;28;20157;-82
2023/04/05 10:16:56;;;;;;;;;;;;;;;18.34;nan;102351.44;5027130;28;19917;-81
2023/04/05 10:19:40;;;;;;;;;;;;;;;18.32;nan;102352.78;5026170;28;20076;-82
2023/04/05 10:22:11;;;;;;;;;;;;;;;18.34;nan;102346.03;5027564;28;20370;-81
2023/04/05 10:24:44;;;;;;;;;;;;;;;18.10;nan;102352.88;5027411;28;19945;-82
2023/04/05 10:27:28;;;;;;;;;;;;;;;18.02;nan;102353.38;5027381;28;19978;-82
2023/04/05 10:29:54;;;;;;;;;;;;;;;17.72;nan;102351.19;5026086;28;20407;-82
2023/04/05 10:32:42;;;;;;;;;;;;;;;17.54;nan;102355.06;5027545;28;19948;-81
2023/04/05 10:35:13;;;;;;;;;;;;;;;17.52;nan;102357.22;4980933;28;19974;-82
2023/04/05 10:38:01;;;;;;;;;;;;;;;17.65;nan;102356.00;5027027;28;20011;-81
2023/04/05 10:40:30;;;;;;;;;;;;;;;17.78;nan;102356.44;4999039;28;20057;-81
2023/04/05 10:42:56;;;;;;;;;;;;;;;17.85;nan;102348.06;5026590;28;19928;-81
2023/04/05 10:45:22;;;;;;;;;;;;;;;17.73;nan;102347.41;5027560;28;19924;-81
2023/04/05 10:47:50;;;;;;;;;;;;;;;17.62;nan;102343.78;5026366;28;21289;-81
2023/04/05 10:50:20;;;;;;;;;;;;;;;17.59;nan;102344.25;5027267;28;19924;-81
2023/04/05 10:52:46;;;;;;;;;;;;;;;17.63;nan;102339.16;5026127;28;20490;-81
2023/04/05 10:55:11;;;;;;;;;;;;;;;17.69;nan;102333.56;5027431;28;19920;-81
2023/04/05 10:57:37;;;;;;;;;;;;;;;17.79;nan;102338.28;5024733;28;19921;-81
2023/04/05 11:00:02;;;;;;;;;;;;;;;17.83;nan;102333.16;5017684;28;19956;-82
2023/04/05 11:02:29;;;;;;;;;;;;;;;17.85;nan;102336.41;5021889;28;20386;-82
2023/04/05 11:04:55;;;;;;;;;;;;;;;17.93;nan;102344.06;5024150;28;20371;-82
2023/04/05 11:07:21;;;;;;;;;;;;;;;17.98;nan;102334.09;5020784;28;20390;-82
2023/04/05 11:09:51;;;;;;;;;;;;;;;18.03;nan;102333.31;5021093;28;19925;-81
2023/04/05 11:12:19;;;;;;;;;;;;;;;18.11;nan;102336.34;5018769;28;20775;-81
2023/04/05 11:14:45;;;;;;;;;;;;;;;18.22;nan;102333.72;5020174;28;19921;-81
2023/04/05 11:17:28;;;;;;;;;;;;;;;18.19;nan;102332.34;5021597;28;20322;-81
2023/04/05 11:20:04;;;;;;;;;;;;;;;18.14;nan;102331.50;5023692;28;19944;-81
2023/04/05 11:22:29;;;;;;;;;;;;;;;18.08;nan;102327.91;5024699;28;20390;-81
2023/04/05 11:24:57;;;;;;;;;;;;;;;18.22;nan;102326.41;5007182;28;19935;-82
2023/04/05 11:27:27;;;;;;;;;;;;;;;18.27;nan;102328.31;5022913;28;20015;-81
2023/04/05 11:29:53;;;;;;;;;;;;;;;18.40;nan;102322.44;5021193;28;19931;-81
2023/04/05 11:32:19;;;;;;;;;;;;;;;18.60;nan;102329.88;5026134;28;19921;-82
2023/04/05 11:34:57;;;;;;;;;;;;;;;18.88;nan;102323.25;5024360;28;20453;-81
2023/04/05 11:37:22;;;;;;;;;;;;;;;19.13;nan;102319.81;5019654;28;19921;-82
2023/04/05 11:39:48;;;;;;;;;;;;;;;19.23;nan;102311.69;5021873;28;19921;-82
2023/04/05 11:42:15;;;;;;;;;;;;;;;19.29;nan;102325.03;5024270;28;20394;-81
2023/04/05 11:44:40;;;;;;;;;;;;;;;19.31;nan;102319.31;5025130;28;20349;-81
2023/04/05 11:47:06;;;;;;;;;;;;;;;19.15;nan;102320.34;5023301;28;19929;-81
2023/04/05 11:49:32;;;;;;;;;;;;;;;18.99;nan;102323.03;5022654;28;19967;-80
2023/04/05 11:51:57;;;;;;;;;;;;;;;18.95;nan;102324.63;5026146;28;19925;-81
2023/04/05 11:54:29;;;;;;;;;;;;;;;18.97;nan;102322.47;5023401;28;19925;-81
2023/04/05 11:56:55;;;;;;;;;;;;;;;19.04;nan;102313.28;5024516;28;20406;-81
2023/04/05 11:59:26;;;;;;;;;;;;;;;19.12;nan;102310.84;5021622;28;19996;-81
2023/04/05 12:01:56;;;;;;;;;;;;;;;19.22;nan;102307.34;5001636;28;19917;-81
2023/04/05 12:04:22;;;;;;;;;;;;;;;19.24;nan;102311.44;5022957;28;19971;-82
2023/04/05 12:06:48;;;;;;;;;;;;;;;19.15;nan;102307.59;5021590;28;19924;-81
2023/04/05 12:09:13;;;;;;;;;;;;;;;19.04;nan;102313.28;5003027;28;19920;-81
2023/04/05 12:11:40;;;;;;;;;;;;;;;18.95;nan;102316.50;5021321;28;19931;-81
2023/04/05 12:14:05;;;;;;;;;;;;;;;18.89;nan;102312.13;5023598;28;19917;-81
2023/04/05 12:16:30;;;;;;;;;;;;;;;18.77;nan;102306.09;5022173;28;20377;-81
2023/04/05 12:18:59;;;;;;;;;;;;;;;18.74;nan;102306.63;5021259;28;19932;-82
2023/04/05 12:21:26;;;;;;;;;;;;;;;18.69;nan;102310.16;5022341;28;20528;-81
2023/04/05 12:23:52;;;;;;;;;;;;;;;18.69;nan;102306.63;5023397;28;19944;-81
2023/04/05 12:26:17;;;;;;;;;;;;;;;18.65;nan;102310.94;5023743;28;19941;-81
2023/04/05 12:28:52;;;;;;;;;;;;;;;18.64;nan;102301.16;5022801;28;19928;-81
2023/04/05 12:31:38;;;;;;;;;;;;;;;18.68;nan;102307.72;5022039;28;20402;-81
2023/04/05 12:34:03;;;;;;;;;;;;;;;18.69;nan;102296.59;5022685;28;19925;-81
2023/04/05 12:36:30;;;;;;;;;;;;;;;18.64;nan;102301.16;5023423;28;19917;-81
2023/04/05 12:38:56;;;;;;;;;;;;;;;18.53;nan;102294.03;5024433;28;20390;-81
2023/04/05 12:41:28;;;;;;;;;;;;;;;18.38;nan;102292.84;5026755;28;19917;-81
2023/04/05 12:43:59;;;;;;;;;;;;;;;18.25;nan;102293.31;5028384;28;20377;-81
2023/04/05 12:46:38;;;;;;;;;;;;;;;18.17;nan;102296.53;5025969;28;19929;-81
2023/04/05 12:49:03;;;;;;;;;;;;;;;18.06;nan;102295.63;5025926;28;19928;-81
2023/04/05 12:51:30;;;;;;;;;;;;;;;18.02;nan;102293.72;5028656;28;20290;-81
2023/04/05 12:53:55;;;;;;;;;;;;;;;17.98;nan;102293.41;5029277;28;19942;-81
2023/04/05 12:56:21;;;;;;;;;;;;;;;17.95;nan;102288.47;5028595;28;19925;-81
2023/04/05 12:58:48;;;;;;;;;;;;;;;17.99;nan;102283.38;5028708;28;20157;-81
2023/04/05 13:01:13;;;;;;;;;;;;;;;17.99;nan;102294.22;5026250;28;19917;-81
2023/04/05 13:03:42;;;;;;;;;;;;;;;17.83;nan;102289.75;5025977;28;19925;-81